sensor_id;sensor_type;location;lat;lon;timestamp;pressure;altitude;pressure_sealevel;temperature;humidity
73974;BME280;62336;-26.094;27.994;2022-10-31T00:02:24;84696.29;;;30.52;23.48
73974;BME280;62336;-26.094;27.994;2022-10-31T00:04:50;84694.66;;;30.74;23.71
73974;BME280;62336;-26.094;27.994;2022-10-31T00:07:14;84694.19;;;30.06;23.82
73974;BME280;62336;-26.094;27.994;2022-10-31T00:09:40;84690.86;;;30.51;23.61
73974;BME280;62336;-26.094;27.994;2022-10-31T00:12:05;84689.57;;;30.20;23.43
73974;BME280;62336;-26.094;27.994;2022-10-31T00:14:30;84692.53;;;30.56;23.58
73974;BME280;62336;-26.094;27.994;2022-10-31T00:16:56;84694.23;;;30.50;23.45
73974;BME280;62336;-26.094;27.994;2022-10-31T00:19:21;84693.18;;;30.37;23.47
73974;BME280;62336;-26.094;27.994;2022-10-31T00:21:46;84696.29;;;30.45;23.77
73974;BME280;62336;-26.094;27.994;2022-10-31T00:24:12;84696.72;;;30.46;24.06
73974;BME280;62336;-26.094;27.994;2022-10-31T00:26:38;84695.90;;;30.25;23.67
73974;BME280;62336;-26.094;27.994;2022-10-31T00:29:04;84697.30;;;30.58;23.55
73974;BME280;62336;-26.094;27.994;2022-10-31T00:31:29;84700.00;;;30.17;23.31
73974;BME280;62336;-26.094;27.994;2022-10-31T00:33:54;84701.30;;;30.61;23.31
73974;BME280;62336;-26.094;27.994;2022-10-31T00:36:20;84699.30;;;30.34;23.34
73974;BME280;62336;-26.094;27.994;2022-10-31T00:38:46;84698.10;;;30.42;23.21
73974;BME280;62336;-26.094;27.994;2022-10-31T00:41:12;84696.43;;;30.95;23.27
73974;BME280;62336;-26.094;27.994;2022-10-31T00:43:37;84698.82;;;30.58;23.24
73974;BME280;62336;-26.094;27.994;2022-10-31T00:46:02;84696.30;;;30.50;23.60
73974;BME280;62336;-26.094;27.994;2022-10-31T00:48:27;84694.26;;;30.41;23.35
73974;BME280;62336;-26.094;27.994;2022-10-31T00:50:52;84694.88;;;30.38;23.32
73974;BME280;62336;-26.094;27.994;2022-10-31T00:53:17;84696.51;;;30.13;23.35
73974;BME280;62336;-26.094;27.994;2022-10-31T00:55:43;84698.19;;;30.47;23.13
73974;BME280;62336;-26.094;27.994;2022-10-31T00:58:08;84700.74;;;30.46;23.34
73974;BME280;62336;-26.094;27.994;2022-10-31T01:00:34;84703.69;;;30.23;23.49
73974;BME280;62336;-26.094;27.994;2022-10-31T01:02:59;84702.37;;;30.29;23.69
73974;BME280;62336;-26.094;27.994;2022-10-31T01:05:25;84705.76;;;30.00;23.36
73974;BME280;62336;-26.094;27.994;2022-10-31T01:07:50;84706.22;;;30.36;23.48
73974;BME280;62336;-26.094;27.994;2022-10-31T01:10:16;84707.15;;;30.11;23.43
73974;BME280;62336;-26.094;27.994;2022-10-31T01:12:43;84703.49;;;30.53;23.45
73974;BME280;62336;-26.094;27.994;2022-10-31T01:15:08;84701.75;;;30.31;23.39
73974;BME280;62336;-26.094;27.994;2022-10-31T01:17:33;84698.81;;;30.32;23.50
73974;BME280;62336;-26.094;27.994;2022-10-31T01:19:58;84696.36;;;30.03;23.49
73974;BME280;62336;-26.094;27.994;2022-10-31T01:22:24;84696.13;;;30.30;23.67
73974;BME280;62336;-26.094;27.994;2022-10-31T01:24:49;84695.08;;;30.14;23.81
73974;BME280;62336;-26.094;27.994;2022-10-31T01:27:14;84689.27;;;29.92;23.78
73974;BME280;62336;-26.094;27.994;2022-10-31T01:29:40;84690.43;;;30.09;23.59
73974;BME280;62336;-26.094;27.994;2022-10-31T01:32:06;84693.28;;;29.64;23.54
73974;BME280;62336;-26.094;27.994;2022-10-31T01:34:30;84694.09;;;30.21;23.48
73974;BME280;62336;-26.094;27.994;2022-10-31T01:36:55;84693.32;;;29.80;23.49
73974;BME280;62336;-26.094;27.994;2022-10-31T01:39:20;84691.98;;;30.18;23.65
73974;BME280;62336;-26.094;27.994;2022-10-31T01:41:48;84690.00;;;30.25;23.71
73974;BME280;62336;-26.094;27.994;2022-10-31T01:46:38;84694.77;;;29.98;23.49
73974;BME280;62336;-26.094;27.994;2022-10-31T01:49:03;84692.78;;;30.39;23.38
73974;BME280;62336;-26.094;27.994;2022-10-31T01:51:28;84690.66;;;30.40;23.42
73974;BME280;62336;-26.094;27.994;2022-10-31T01:53:57;84691.45;;;30.37;23.48
73974;BME280;62336;-26.094;27.994;2022-10-31T01:56:18;84689.10;;;30.65;23.47
73974;BME280;62336;-26.094;27.994;2022-10-31T01:58:46;84691.05;;;30.45;23.41
73974;BME280;62336;-26.094;27.994;2022-10-31T02:01:10;84695.40;;;30.44;23.38
73974;BME280;62336;-26.094;27.994;2022-10-31T02:03:34;84699.08;;;30.15;23.27
73974;BME280;62336;-26.094;27.994;2022-10-31T02:05:59;84699.75;;;29.94;23.71
73974;BME280;62336;-26.094;27.994;2022-10-31T02:08:27;84700.73;;;29.66;23.47
73974;BME280;62336;-26.094;27.994;2022-10-31T02:10:58;84702.11;;;29.62;23.56
73974;BME280;62336;-26.094;27.994;2022-10-31T02:13:17;84704.88;;;30.17;23.51
73974;BME280;62336;-26.094;27.994;2022-10-31T02:15:41;84707.32;;;30.34;23.49
73974;BME280;62336;-26.094;27.994;2022-10-31T02:18:06;84705.31;;;30.10;23.57
73974;BME280;62336;-26.094;27.994;2022-10-31T02:20:35;84708.20;;;30.12;23.63
73974;BME280;62336;-26.094;27.994;2022-10-31T02:25:35;84712.93;;;29.86;23.73
73974;BME280;62336;-26.094;27.994;2022-10-31T02:27:59;84718.79;;;29.97;23.62
73974;BME280;62336;-26.094;27.994;2022-10-31T02:30:16;84723.71;;;29.96;23.53
73974;BME280;62336;-26.094;27.994;2022-10-31T02:32:47;84732.23;;;30.11;23.39
73974;BME280;62336;-26.094;27.994;2022-10-31T02:35:11;84739.76;;;30.19;23.43
73974;BME280;62336;-26.094;27.994;2022-10-31T02:37:34;84742.21;;;30.46;23.37
73974;BME280;62336;-26.094;27.994;2022-10-31T02:39:56;84744.09;;;30.01;23.51
73974;BME280;62336;-26.094;27.994;2022-10-31T02:42:24;84744.41;;;30.43;23.41
73974;BME280;62336;-26.094;27.994;2022-10-31T02:44:48;84745.45;;;30.27;23.87
73974;BME280;62336;-26.094;27.994;2022-10-31T02:47:13;84751.95;;;30.16;23.61
73974;BME280;62336;-26.094;27.994;2022-10-31T02:49:39;84756.97;;;29.90;23.62
73974;BME280;62336;-26.094;27.994;2022-10-31T02:52:00;84761.55;;;30.32;23.67
73974;BME280;62336;-26.094;27.994;2022-10-31T02:54:27;84768.06;;;30.35;23.78
73974;BME280;62336;-26.094;27.994;2022-10-31T02:56:52;84772.19;;;30.13;23.73
73974;BME280;62336;-26.094;27.994;2022-10-31T02:59:16;84774.33;;;30.16;23.76
73974;BME280;62336;-26.094;27.994;2022-10-31T03:01:56;84774.91;;;30.24;24.02
73974;BME280;62336;-26.094;27.994;2022-10-31T03:04:16;84778.25;;;30.36;24.32
73974;BME280;62336;-26.094;27.994;2022-10-31T03:06:34;84781.47;;;30.43;24.11
73974;BME280;62336;-26.094;27.994;2022-10-31T03:09:05;84787.35;;;30.26;24.00
73974;BME280;62336;-26.094;27.994;2022-10-31T03:11:27;84788.73;;;30.06;24.03
73974;BME280;62336;-26.094;27.994;2022-10-31T03:13:51;84789.61;;;30.11;24.12
73974;BME280;62336;-26.094;27.994;2022-10-31T03:16:16;84790.82;;;30.47;23.96
73974;BME280;62336;-26.094;27.994;2022-10-31T03:18:40;84793.59;;;30.12;23.80
73974;BME280;62336;-26.094;27.994;2022-10-31T03:21:07;84794.36;;;30.45;23.98
73974;BME280;62336;-26.094;27.994;2022-10-31T03:23:31;84795.83;;;30.33;23.93
73974;BME280;62336;-26.094;27.994;2022-10-31T03:25:55;84796.63;;;30.14;23.76
73974;BME280;62336;-26.094;27.994;2022-10-31T03:28:25;84799.36;;;30.34;23.86
73974;BME280;62336;-26.094;27.994;2022-10-31T03:30:47;84805.60;;;30.04;23.94
73974;BME280;62336;-26.094;27.994;2022-10-31T03:33:15;84809.03;;;30.73;23.73
73974;BME280;62336;-26.094;27.994;2022-10-31T03:35:39;84812.29;;;30.69;23.80
73974;BME280;62336;-26.094;27.994;2022-10-31T03:38:02;84819.51;;;30.54;24.20
73974;BME280;62336;-26.094;27.994;2022-10-31T03:40:28;84823.26;;;30.68;23.88
73974;BME280;62336;-26.094;27.994;2022-10-31T03:42:58;84823.25;;;30.40;23.74
73974;BME280;62336;-26.094;27.994;2022-10-31T03:45:22;84826.95;;;30.38;23.75
73974;BME280;62336;-26.094;27.994;2022-10-31T03:47:45;84829.07;;;30.48;23.71
73974;BME280;62336;-26.094;27.994;2022-10-31T03:50:10;84831.84;;;30.56;23.67
73974;BME280;62336;-26.094;27.994;2022-10-31T03:52:39;84833.73;;;30.66;23.78
73974;BME280;62336;-26.094;27.994;2022-10-31T03:55:03;84836.29;;;30.94;23.89
73974;BME280;62336;-26.094;27.994;2022-10-31T03:57:27;84835.96;;;30.71;24.06
73974;BME280;62336;-26.094;27.994;2022-10-31T03:59:53;84835.87;;;30.61;24.03
73974;BME280;62336;-26.094;27.994;2022-10-31T04:02:16;84832.20;;;30.76;23.88
73974;BME280;62336;-26.094;27.994;2022-10-31T04:04:40;84835.45;;;30.81;23.91
73974;BME280;62336;-26.094;27.994;2022-10-31T04:07:06;84844.20;;;30.89;23.84
73974;BME280;62336;-26.094;27.994;2022-10-31T04:09:32;84848.39;;;30.83;23.93
73974;BME280;62336;-26.094;27.994;2022-10-31T04:11:57;84854.55;;;30.90;24.12
73974;BME280;62336;-26.094;27.994;2022-10-31T04:14:21;84857.07;;;30.99;24.20
73974;BME280;62336;-26.094;27.994;2022-10-31T04:16:46;84859.20;;;30.71;24.40
73974;BME280;62336;-26.094;27.994;2022-10-31T04:19:12;84863.89;;;30.60;24.02
73974;BME280;62336;-26.094;27.994;2022-10-31T04:21:37;84864.16;;;30.91;23.97
73974;BME280;62336;-26.094;27.994;2022-10-31T04:24:02;84863.87;;;31.12;23.87
73974;BME280;62336;-26.094;27.994;2022-10-31T04:26:27;84860.38;;;31.06;23.86
73974;BME280;62336;-26.094;27.994;2022-10-31T04:28:53;84858.46;;;31.27;23.59
73974;BME280;62336;-26.094;27.994;2022-10-31T04:31:18;84859.37;;;31.18;23.87
73974;BME280;62336;-26.094;27.994;2022-10-31T04:33:44;84862.14;;;31.01;23.91
73974;BME280;62336;-26.094;27.994;2022-10-31T04:36:09;84867.43;;;31.29;24.00
73974;BME280;62336;-26.094;27.994;2022-10-31T04:38:34;84867.07;;;30.95;24.07
73974;BME280;62336;-26.094;27.994;2022-10-31T04:41:00;84871.33;;;30.89;24.01
73974;BME280;62336;-26.094;27.994;2022-10-31T04:43:25;84873.72;;;31.07;23.94
73974;BME280;62336;-26.094;27.994;2022-10-31T04:45:50;84874.81;;;31.24;23.79
73974;BME280;62336;-26.094;27.994;2022-10-31T04:48:17;84878.48;;;31.78;23.54
73974;BME280;62336;-26.094;27.994;2022-10-31T04:50:41;84878.85;;;31.67;23.18
73974;BME280;62336;-26.094;27.994;2022-10-31T04:53:07;84879.42;;;31.22;23.51
73974;BME280;62336;-26.094;27.994;2022-10-31T04:55:32;84881.64;;;31.57;23.14
73974;BME280;62336;-26.094;27.994;2022-10-31T04:57:57;84885.68;;;31.59;22.80
73974;BME280;62336;-26.094;27.994;2022-10-31T05:00:23;84889.95;;;31.46;23.17
73974;BME280;62336;-26.094;27.994;2022-10-31T05:02:50;84894.72;;;31.76;21.94
73974;BME280;62336;-26.094;27.994;2022-10-31T05:05:14;84898.99;;;31.89;21.80
73974;BME280;62336;-26.094;27.994;2022-10-31T05:07:40;84901.93;;;31.79;22.26
73974;BME280;62336;-26.094;27.994;2022-10-31T05:10:05;84904.74;;;32.05;21.81
73974;BME280;62336;-26.094;27.994;2022-10-31T05:12:29;84905.56;;;32.01;21.72
73974;BME280;62336;-26.094;27.994;2022-10-31T05:14:55;84906.01;;;32.06;20.97
73974;BME280;62336;-26.094;27.994;2022-10-31T05:17:21;84903.22;;;32.24;20.94
73974;BME280;62336;-26.094;27.994;2022-10-31T05:19:46;84907.51;;;32.00;21.29
73974;BME280;62336;-26.094;27.994;2022-10-31T05:22:11;84908.46;;;32.61;20.97
73974;BME280;62336;-26.094;27.994;2022-10-31T05:24:37;84907.41;;;32.16;20.71
73974;BME280;62336;-26.094;27.994;2022-10-31T05:27:01;84908.19;;;32.29;20.57
73974;BME280;62336;-26.094;27.994;2022-10-31T05:29:26;84911.62;;;32.47;20.67
73974;BME280;62336;-26.094;27.994;2022-10-31T05:31:52;84910.17;;;32.32;20.37
73974;BME280;62336;-26.094;27.994;2022-10-31T05:34:17;84908.52;;;32.13;20.55
73974;BME280;62336;-26.094;27.994;2022-10-31T05:36:43;84908.62;;;32.10;20.72
73974;BME280;62336;-26.094;27.994;2022-10-31T05:39:08;84911.49;;;32.33;20.78
73974;BME280;62336;-26.094;27.994;2022-10-31T05:41:33;84912.19;;;32.73;21.25
73974;BME280;62336;-26.094;27.994;2022-10-31T05:43:58;84915.38;;;31.98;21.19
73974;BME280;62336;-26.094;27.994;2022-10-31T05:46:24;84914.01;;;31.87;20.90
73974;BME280;62336;-26.094;27.994;2022-10-31T05:48:48;84910.68;;;32.60;21.17
73974;BME280;62336;-26.094;27.994;2022-10-31T05:51:13;84905.55;;;32.29;20.66
73974;BME280;62336;-26.094;27.994;2022-10-31T05:53:39;84904.16;;;32.52;20.58
73974;BME280;62336;-26.094;27.994;2022-10-31T05:56:05;84909.58;;;32.67;21.14
73974;BME280;62336;-26.094;27.994;2022-10-31T05:58:29;84910.95;;;32.38;20.75
73974;BME280;62336;-26.094;27.994;2022-10-31T06:00:55;84910.93;;;32.84;20.55
73974;BME280;62336;-26.094;27.994;2022-10-31T06:03:21;84912.74;;;32.75;20.91
73974;BME280;62336;-26.094;27.994;2022-10-31T06:05:46;84912.84;;;32.95;20.64
73974;BME280;62336;-26.094;27.994;2022-10-31T06:08:12;84913.00;;;32.77;20.71
73974;BME280;62336;-26.094;27.994;2022-10-31T06:10:38;84911.20;;;32.80;20.59
73974;BME280;62336;-26.094;27.994;2022-10-31T06:13:03;84913.58;;;33.09;20.51
73974;BME280;62336;-26.094;27.994;2022-10-31T06:15:29;84914.63;;;33.06;20.29
73974;BME280;62336;-26.094;27.994;2022-10-31T06:18:02;84918.05;;;33.00;20.46
73974;BME280;62336;-26.094;27.994;2022-10-31T06:20:20;84920.56;;;32.83;20.41
73974;BME280;62336;-26.094;27.994;2022-10-31T06:22:45;84923.05;;;32.88;20.37
73974;BME280;62336;-26.094;27.994;2022-10-31T06:25:11;84925.67;;;32.81;20.37
73974;BME280;62336;-26.094;27.994;2022-10-31T06:27:36;84927.56;;;32.90;20.75
73974;BME280;62336;-26.094;27.994;2022-10-31T06:30:02;84927.21;;;32.92;20.29
73974;BME280;62336;-26.094;27.994;2022-10-31T06:32:26;84929.24;;;33.18;20.40
73974;BME280;62336;-26.094;27.994;2022-10-31T06:34:52;84927.06;;;33.02;20.86
73974;BME280;62336;-26.094;27.994;2022-10-31T06:37:17;84924.23;;;33.29;20.69
73974;BME280;62336;-26.094;27.994;2022-10-31T06:39:42;84924.82;;;33.49;19.95
73974;BME280;62336;-26.094;27.994;2022-10-31T06:42:08;84921.40;;;33.50;19.80
73974;BME280;62336;-26.094;27.994;2022-10-31T06:44:33;84915.55;;;33.04;19.92
73974;BME280;62336;-26.094;27.994;2022-10-31T06:46:59;84914.38;;;32.97;19.81
73974;BME280;62336;-26.094;27.994;2022-10-31T06:49:24;84913.18;;;33.32;19.64
73974;BME280;62336;-26.094;27.994;2022-10-31T06:51:50;84916.55;;;33.08;20.25
73974;BME280;62336;-26.094;27.994;2022-10-31T06:54:15;84910.88;;;33.31;19.60
73974;BME280;62336;-26.094;27.994;2022-10-31T06:56:40;84911.38;;;33.29;19.39
73974;BME280;62336;-26.094;27.994;2022-10-31T06:59:06;84916.59;;;32.96;19.72
73974;BME280;62336;-26.094;27.994;2022-10-31T07:01:31;84922.42;;;33.78;20.04
73974;BME280;62336;-26.094;27.994;2022-10-31T07:03:57;84924.49;;;33.44;19.33
73974;BME280;62336;-26.094;27.994;2022-10-31T07:06:23;84927.07;;;34.06;18.59
73974;BME280;62336;-26.094;27.994;2022-10-31T07:08:47;84934.52;;;33.77;18.90
73974;BME280;62336;-26.094;27.994;2022-10-31T07:11:12;84931.96;;;33.63;18.58
73974;BME280;62336;-26.094;27.994;2022-10-31T07:13:38;84932.68;;;33.63;18.74
73974;BME280;62336;-26.094;27.994;2022-10-31T07:16:05;84931.71;;;33.50;19.11
73974;BME280;62336;-26.094;27.994;2022-10-31T07:18:29;84937.12;;;33.67;18.61
73974;BME280;62336;-26.094;27.994;2022-10-31T07:20:55;84936.84;;;33.23;18.56
73974;BME280;62336;-26.094;27.994;2022-10-31T07:23:20;84938.05;;;33.60;19.46
73974;BME280;62336;-26.094;27.994;2022-10-31T07:25:45;84943.09;;;33.67;18.87
73974;BME280;62336;-26.094;27.994;2022-10-31T07:28:11;84942.60;;;33.95;18.65
73974;BME280;62336;-26.094;27.994;2022-10-31T07:30:42;84937.53;;;33.99;18.36
73974;BME280;62336;-26.094;27.994;2022-10-31T07:33:01;84938.80;;;34.53;18.13
73974;BME280;62336;-26.094;27.994;2022-10-31T07:35:28;84941.40;;;34.39;18.08
73974;BME280;62336;-26.094;27.994;2022-10-31T07:37:52;84939.50;;;34.68;18.07
73974;BME280;62336;-26.094;27.994;2022-10-31T07:40:19;84938.96;;;34.67;18.00
73974;BME280;62336;-26.094;27.994;2022-10-31T07:42:46;84941.09;;;34.58;17.92
73974;BME280;62336;-26.094;27.994;2022-10-31T07:45:10;84935.75;;;34.75;18.03
73974;BME280;62336;-26.094;27.994;2022-10-31T07:47:38;84933.14;;;35.11;17.87
73974;BME280;62336;-26.094;27.994;2022-10-31T07:50:00;84930.16;;;35.16;17.88
73974;BME280;62336;-26.094;27.994;2022-10-31T07:52:24;84930.03;;;35.03;18.11
73974;BME280;62336;-26.094;27.994;2022-10-31T07:54:49;84931.68;;;35.16;18.60
73974;BME280;62336;-26.094;27.994;2022-10-31T07:57:16;84922.90;;;35.01;17.78
73974;BME280;62336;-26.094;27.994;2022-10-31T07:59:41;84925.54;;;34.94;18.32
73974;BME280;62336;-26.094;27.994;2022-10-31T08:02:07;84927.31;;;34.74;18.24
73974;BME280;62336;-26.094;27.994;2022-10-31T08:04:31;84924.85;;;34.90;18.20
73974;BME280;62336;-26.094;27.994;2022-10-31T08:06:56;84928.58;;;34.78;18.32
73974;BME280;62336;-26.094;27.994;2022-10-31T08:09:22;84930.14;;;34.75;18.35
73974;BME280;62336;-26.094;27.994;2022-10-31T08:11:47;84931.93;;;34.86;18.17
73974;BME280;62336;-26.094;27.994;2022-10-31T08:14:13;84935.65;;;34.88;18.24
73974;BME280;62336;-26.094;27.994;2022-10-31T08:16:39;84936.82;;;34.80;18.23
73974;BME280;62336;-26.094;27.994;2022-10-31T08:19:04;84933.24;;;34.58;18.31
73974;BME280;62336;-26.094;27.994;2022-10-31T08:21:29;84929.53;;;34.79;17.85
73974;BME280;62336;-26.094;27.994;2022-10-31T08:23:55;84916.47;;;35.06;18.34
73974;BME280;62336;-26.094;27.994;2022-10-31T08:26:20;84913.80;;;34.89;18.14
73974;BME280;62336;-26.094;27.994;2022-10-31T08:28:45;84922.26;;;34.85;18.45
73974;BME280;62336;-26.094;27.994;2022-10-31T08:31:10;84922.80;;;34.95;18.30
73974;BME280;62336;-26.094;27.994;2022-10-31T08:33:36;84923.50;;;35.20;17.91
73974;BME280;62336;-26.094;27.994;2022-10-31T08:36:01;84917.01;;;34.73;18.02
73974;BME280;62336;-26.094;27.994;2022-10-31T08:38:27;84915.30;;;34.74;18.04
73974;BME280;62336;-26.094;27.994;2022-10-31T08:40:52;84915.80;;;34.96;17.88
73974;BME280;62336;-26.094;27.994;2022-10-31T08:43:18;84908.94;;;34.74;18.08
73974;BME280;62336;-26.094;27.994;2022-10-31T08:45:43;84906.65;;;34.97;18.22
73974;BME280;62336;-26.094;27.994;2022-10-31T08:48:10;84906.94;;;35.11;18.56
73974;BME280;62336;-26.094;27.994;2022-10-31T08:50:34;84900.72;;;35.26;18.01
73974;BME280;62336;-26.094;27.994;2022-10-31T08:53:01;84898.09;;;35.16;17.63
73974;BME280;62336;-26.094;27.994;2022-10-31T08:55:23;84899.21;;;35.10;17.73
73974;BME280;62336;-26.094;27.994;2022-10-31T08:57:53;84897.48;;;35.28;17.56
73974;BME280;62336;-26.094;27.994;2022-10-31T09:00:15;84893.31;;;35.27;17.47
73974;BME280;62336;-26.094;27.994;2022-10-31T09:02:40;84886.57;;;35.26;17.65
73974;BME280;62336;-26.094;27.994;2022-10-31T09:05:05;84883.64;;;35.38;17.56
73974;BME280;62336;-26.094;27.994;2022-10-31T09:07:31;84881.78;;;35.59;17.71
73974;BME280;62336;-26.094;27.994;2022-10-31T09:09:56;84879.14;;;35.35;17.87
73974;BME280;62336;-26.094;27.994;2022-10-31T09:12:21;84881.00;;;35.50;17.72
73974;BME280;62336;-26.094;27.994;2022-10-31T09:14:46;84880.66;;;35.68;17.47
73974;BME280;62336;-26.094;27.994;2022-10-31T09:17:11;84879.07;;;35.86;16.96
73974;BME280;62336;-26.094;27.994;2022-10-31T09:19:37;84869.29;;;35.94;17.10
73974;BME280;62336;-26.094;27.994;2022-10-31T09:22:02;84869.12;;;36.10;16.89
73974;BME280;62336;-26.094;27.994;2022-10-31T09:24:27;84860.66;;;36.19;17.03
73974;BME280;62336;-26.094;27.994;2022-10-31T09:26:53;84860.98;;;36.01;17.09
73974;BME280;62336;-26.094;27.994;2022-10-31T09:29:18;84858.68;;;35.85;17.12
73974;BME280;62336;-26.094;27.994;2022-10-31T09:31:44;84855.08;;;36.17;17.31
73974;BME280;62336;-26.094;27.994;2022-10-31T09:34:09;84854.03;;;35.67;16.88
73974;BME280;62336;-26.094;27.994;2022-10-31T09:36:35;84844.12;;;35.87;16.87
73974;BME280;62336;-26.094;27.994;2022-10-31T09:38:59;84847.03;;;35.94;17.17
73974;BME280;62336;-26.094;27.994;2022-10-31T09:41:30;84844.06;;;36.05;16.74
73974;BME280;62336;-26.094;27.994;2022-10-31T09:43:55;84844.90;;;36.30;16.56
73974;BME280;62336;-26.094;27.994;2022-10-31T09:46:21;84843.36;;;36.15;16.77
73974;BME280;62336;-26.094;27.994;2022-10-31T09:48:50;84844.28;;;36.34;17.33
73974;BME280;62336;-26.094;27.994;2022-10-31T09:51:08;84847.40;;;36.29;17.01
73974;BME280;62336;-26.094;27.994;2022-10-31T09:53:34;84845.44;;;36.40;16.95
73974;BME280;62336;-26.094;27.994;2022-10-31T09:55:56;84841.44;;;36.22;16.71
73974;BME280;62336;-26.094;27.994;2022-10-31T09:58:25;84834.44;;;36.42;17.14
73974;BME280;62336;-26.094;27.994;2022-10-31T10:00:47;84837.00;;;36.61;16.76
73974;BME280;62336;-26.094;27.994;2022-10-31T10:03:16;84836.25;;;36.16;16.76
73974;BME280;62336;-26.094;27.994;2022-10-31T10:05:49;84837.86;;;36.27;17.22
73974;BME280;62336;-26.094;27.994;2022-10-31T10:08:09;84837.87;;;36.17;17.05
73974;BME280;62336;-26.094;27.994;2022-10-31T10:10:37;84834.72;;;36.55;17.09
73974;BME280;62336;-26.094;27.994;2022-10-31T10:13:09;84835.58;;;36.77;16.78
73974;BME280;62336;-26.094;27.994;2022-10-31T10:17:51;84832.22;;;36.81;16.60
73974;BME280;62336;-26.094;27.994;2022-10-31T10:20:21;84825.94;;;36.88;16.69
73974;BME280;62336;-26.094;27.994;2022-10-31T10:22:40;84817.73;;;37.27;16.14
73974;BME280;62336;-26.094;27.994;2022-10-31T10:25:12;84815.76;;;36.51;16.63
73974;BME280;62336;-26.094;27.994;2022-10-31T10:27:34;84808.36;;;37.21;16.68
73974;BME280;62336;-26.094;27.994;2022-10-31T10:29:56;84816.02;;;36.86;16.61
73974;BME280;62336;-26.094;27.994;2022-10-31T10:32:22;84804.80;;;36.48;16.94
73974;BME280;62336;-26.094;27.994;2022-10-31T10:34:45;84795.39;;;36.62;16.55
73974;BME280;62336;-26.094;27.994;2022-10-31T10:37:13;84789.90;;;36.93;16.67
73974;BME280;62336;-26.094;27.994;2022-10-31T10:39:37;84786.61;;;36.92;16.58
73974;BME280;62336;-26.094;27.994;2022-10-31T10:41:59;84778.56;;;36.75;16.48
73974;BME280;62336;-26.094;27.994;2022-10-31T10:44:22;84774.29;;;36.87;15.75
73974;BME280;62336;-26.094;27.994;2022-10-31T10:46:53;84773.39;;;36.67;16.12
73974;BME280;62336;-26.094;27.994;2022-10-31T10:49:17;84760.64;;;36.75;16.31
73974;BME280;62336;-26.094;27.994;2022-10-31T10:51:44;84755.76;;;36.55;16.33
73974;BME280;62336;-26.094;27.994;2022-10-31T10:54:13;84742.51;;;36.50;16.18
73974;BME280;62336;-26.094;27.994;2022-10-31T10:56:38;84734.77;;;36.62;16.60
73974;BME280;62336;-26.094;27.994;2022-10-31T10:58:56;84727.35;;;36.77;16.51
73974;BME280;62336;-26.094;27.994;2022-10-31T11:01:21;84723.28;;;37.22;15.97
73974;BME280;62336;-26.094;27.994;2022-10-31T11:03:46;84706.64;;;37.13;15.83
73974;BME280;62336;-26.094;27.994;2022-10-31T11:06:22;84712.27;;;37.04;16.00
73974;BME280;62336;-26.094;27.994;2022-10-31T11:08:37;84714.28;;;36.98;16.09
73974;BME280;62336;-26.094;27.994;2022-10-31T11:11:03;84720.48;;;36.78;15.67
73974;BME280;62336;-26.094;27.994;2022-10-31T11:13:27;84725.50;;;36.96;16.01
73974;BME280;62336;-26.094;27.994;2022-10-31T11:15:57;84730.16;;;36.81;15.69
73974;BME280;62336;-26.094;27.994;2022-10-31T11:18:22;84731.95;;;37.08;15.66
73974;BME280;62336;-26.094;27.994;2022-10-31T11:20:50;84729.19;;;37.21;15.31
73974;BME280;62336;-26.094;27.994;2022-10-31T11:23:19;84730.33;;;37.27;15.40
73974;BME280;62336;-26.094;27.994;2022-10-31T11:25:33;84727.48;;;37.13;14.93
73974;BME280;62336;-26.094;27.994;2022-10-31T11:28:01;84719.26;;;37.06;15.42
73974;BME280;62336;-26.094;27.994;2022-10-31T11:30:24;84720.17;;;37.25;15.06
73974;BME280;62336;-26.094;27.994;2022-10-31T11:32:50;84720.05;;;37.84;14.79
73974;BME280;62336;-26.094;27.994;2022-10-31T11:35:17;84717.09;;;37.54;14.52
73974;BME280;62336;-26.094;27.994;2022-10-31T11:37:43;84699.02;;;37.78;14.97
73974;BME280;62336;-26.094;27.994;2022-10-31T11:40:15;84701.58;;;38.09;14.67
73974;BME280;62336;-26.094;27.994;2022-10-31T11:42:43;84687.88;;;37.71;14.15
73974;BME280;62336;-26.094;27.994;2022-10-31T11:44:56;84678.56;;;37.62;14.26
73974;BME280;62336;-26.094;27.994;2022-10-31T11:47:26;84674.23;;;38.02;14.44
73974;BME280;62336;-26.094;27.994;2022-10-31T11:49:48;84677.19;;;37.86;14.43
73974;BME280;62336;-26.094;27.994;2022-10-31T11:52:16;84670.64;;;37.82;14.18
73974;BME280;62336;-26.094;27.994;2022-10-31T11:54:44;84666.67;;;37.74;14.41
73974;BME280;62336;-26.094;27.994;2022-10-31T11:57:02;84669.74;;;37.88;14.18
73974;BME280;62336;-26.094;27.994;2022-10-31T11:59:29;84658.33;;;37.84;14.02
73974;BME280;62336;-26.094;27.994;2022-10-31T12:01:53;84655.17;;;37.31;14.27
73974;BME280;62336;-26.094;27.994;2022-10-31T12:04:18;84652.20;;;37.62;14.33
73974;BME280;62336;-26.094;27.994;2022-10-31T12:06:44;84658.00;;;37.85;14.29
73974;BME280;62336;-26.094;27.994;2022-10-31T12:09:18;84664.95;;;37.65;14.35
73974;BME280;62336;-26.094;27.994;2022-10-31T12:11:43;84674.59;;;37.24;14.24
73974;BME280;62336;-26.094;27.994;2022-10-31T12:14:07;84673.35;;;37.10;14.32
73974;BME280;62336;-26.094;27.994;2022-10-31T12:16:29;84700.59;;;37.51;14.19
73974;BME280;62336;-26.094;27.994;2022-10-31T12:18:58;84727.08;;;36.76;14.87
73974;BME280;62336;-26.094;27.994;2022-10-31T12:21:23;84731.92;;;35.39;16.03
73974;BME280;62336;-26.094;27.994;2022-10-31T12:23:48;84716.12;;;35.36;16.40
73974;BME280;62336;-26.094;27.994;2022-10-31T12:26:12;84722.55;;;34.77;16.47
73974;BME280;62336;-26.094;27.994;2022-10-31T12:28:40;84750.03;;;34.52;17.61
73974;BME280;62336;-26.094;27.994;2022-10-31T12:31:03;84750.18;;;34.54;19.91
73974;BME280;62336;-26.094;27.994;2022-10-31T12:33:34;84745.93;;;33.82;20.50
73974;BME280;62336;-26.094;27.994;2022-10-31T12:35:53;84758.83;;;33.31;21.04
73974;BME280;62336;-26.094;27.994;2022-10-31T12:38:24;84784.96;;;33.11;24.03